createdAt,value
2018-03-08T00:00:02.623Z,937.96
2018-03-08T00:01:02.607Z,937.98
2018-03-08T00:02:02.592Z,938
2018-03-08T00:03:02.576Z,938.04
2018-03-08T00:04:02.559Z,938.06
2018-03-08T00:05:02.542Z,938.05
2018-03-08T00:06:02.526Z,938.04
2018-03-08T00:07:02.510Z,938.04
2018-03-08T00:08:02.495Z,938.11
2018-03-08T00:09:02.479Z,938.08
2018-03-08T00:10:02.462Z,938.06
2018-03-08T00:11:02.447Z,938.07
2018-03-08T00:12:02.430Z,938.06
2018-03-08T00:13:02.413Z,938.04
2018-03-08T00:14:02.399Z,938.1
2018-03-08T00:15:02.382Z,938.05
2018-03-08T00:16:02.366Z,938.15
2018-03-08T00:17:02.349Z,938.12
2018-03-08T00:18:02.349Z,938.12
2018-03-08T00:19:02.379Z,938.16
2018-03-08T00:20:02.301Z,938.11
2018-03-08T00:21:02.284Z,938.11
2018-03-08T00:22:02.268Z,938.06
2018-03-08T00:23:02.255Z,938.1
2018-03-08T00:24:02.236Z,938.06
2018-03-08T00:25:02.226Z,938.03
2018-03-08T00:26:02.204Z,937.98
2018-03-08T00:27:02.189Z,937.98
2018-03-08T00:28:02.172Z,938.04
2018-03-08T00:29:02.155Z,937.99
2018-03-08T00:30:02.144Z,938.04
2018-03-08T00:31:02.125Z,938.05
2018-03-08T00:32:02.123Z,938.08
2018-03-08T00:33:02.092Z,938.13
2018-03-08T00:34:02.075Z,938.1
2018-03-08T00:35:02.059Z,938.11
2018-03-08T00:36:02.043Z,938.11
2018-03-08T00:37:02.028Z,938.09
2018-03-08T00:38:02.010Z,938.04
2018-03-08T00:39:01.994Z,938.08
2018-03-08T00:40:01.977Z,938.13
2018-03-08T00:41:01.962Z,938.1
2018-03-08T00:42:01.946Z,938.07
2018-03-08T00:43:01.933Z,938.1
2018-03-08T00:44:01.911Z,938.1
2018-03-08T00:45:01.901Z,938.09
2018-03-08T00:46:01.881Z,938.14
2018-03-08T00:47:01.864Z,938.13
2018-03-08T00:48:01.847Z,938.15
2018-03-08T00:49:01.830Z,938.18
2018-03-08T00:50:01.817Z,938.21
2018-03-08T00:51:01.798Z,938.23
2018-03-08T00:52:01.782Z,938.22
2018-03-08T00:53:01.765Z,938.22
2018-03-08T00:54:01.750Z,938.24
2018-03-08T00:55:01.733Z,938.26
2018-03-08T00:56:01.717Z,938.23
2018-03-08T00:57:01.702Z,938.26
2018-03-08T00:58:01.685Z,938.28
2018-03-08T00:59:01.669Z,938.31
2018-03-08T01:00:01.652Z,938.31
2018-03-08T01:01:01.638Z,938.32
2018-03-08T01:02:01.619Z,938.34
2018-03-08T01:03:01.605Z,938.35
2018-03-08T01:04:01.598Z,938.3
2018-03-08T01:05:01.572Z,938.31
2018-03-08T01:06:01.554Z,938.38
2018-03-08T01:07:01.539Z,938.35
2018-03-08T01:08:01.573Z,938.37
2018-03-08T01:09:01.507Z,938.4
2018-03-08T01:10:01.489Z,938.4
2018-03-08T01:11:01.473Z,938.39
2018-03-08T01:12:01.458Z,938.4
2018-03-08T01:13:01.440Z,938.36
2018-03-08T01:14:01.425Z,938.42
2018-03-08T01:15:01.408Z,938.45
2018-03-08T01:16:01.393Z,938.46
2018-03-08T01:17:01.374Z,938.47
2018-03-08T01:18:01.359Z,938.44
2018-03-08T01:19:01.343Z,938.47
2018-03-08T01:20:01.326Z,938.42
2018-03-08T01:21:01.310Z,938.47
2018-03-08T01:22:01.292Z,938.45
2018-03-08T01:23:01.277Z,938.49
2018-03-08T01:24:01.260Z,938.49
2018-03-08T01:25:01.247Z,938.48
2018-03-08T01:26:01.231Z,938.51
2018-03-08T01:27:01.214Z,938.49
2018-03-08T01:28:01.197Z,938.46
2018-03-08T01:29:01.180Z,938.5
2018-03-08T01:30:01.164Z,938.47
2018-03-08T01:31:01.146Z,938.47
2018-03-08T01:32:01.134Z,938.46
2018-03-08T01:33:01.117Z,938.51
2018-03-08T01:34:01.100Z,938.46
2018-03-08T01:35:01.084Z,938.48
2018-03-08T01:36:01.068Z,938.46
2018-03-08T01:37:01.052Z,938.49
2018-03-08T01:38:01.036Z,938.49
2018-03-08T01:39:01.018Z,938.46
2018-03-08T01:40:01.004Z,938.49
2018-03-08T01:41:00.986Z,938.5
2018-03-08T01:42:00.969Z,938.43
2018-03-08T01:43:00.954Z,938.48
2018-03-08T01:44:00.938Z,938.48
2018-03-08T01:45:00.926Z,938.48
2018-03-08T01:46:00.906Z,938.49
2018-03-08T01:47:00.889Z,938.46
2018-03-08T01:48:00.874Z,938.49
2018-03-08T01:49:00.858Z,938.52
2018-03-08T01:50:00.842Z,938.49
2018-03-08T01:51:00.824Z,938.49
2018-03-08T01:52:00.809Z,938.49
2018-03-08T01:53:00.793Z,938.52
2018-03-08T01:54:00.777Z,938.49
2018-03-08T01:55:00.762Z,938.51
2018-03-08T01:56:00.745Z,938.46
2018-03-08T01:57:00.728Z,938.49
2018-03-08T01:58:00.711Z,938.51
2018-03-08T01:59:00.695Z,938.46
2018-03-08T02:00:00.682Z,938.45
2018-03-08T02:01:00.663Z,938.5
2018-03-08T02:02:00.648Z,938.41
2018-03-08T02:03:00.633Z,938.47
2018-03-08T02:04:00.616Z,938.51
2018-03-08T02:05:00.600Z,938.51
2018-03-08T02:06:00.582Z,938.52
2018-03-08T02:07:00.569Z,938.49
2018-03-08T02:08:00.552Z,938.44
2018-03-08T02:09:00.534Z,938.49
2018-03-08T02:10:00.518Z,938.48
2018-03-08T02:11:00.502Z,938.49
2018-03-08T02:12:00.487Z,938.44
2018-03-08T02:13:00.471Z,938.5
2018-03-08T02:14:00.454Z,938.48
2018-03-08T02:15:00.470Z,938.43
2018-03-08T02:16:00.423Z,938.46
2018-03-08T02:17:00.407Z,938.49
2018-03-08T02:18:00.389Z,938.49
2018-03-08T02:19:00.373Z,938.43
2018-03-08T02:20:00.358Z,938.5
2018-03-08T02:21:00.342Z,938.51
2018-03-08T02:22:00.325Z,938.52
2018-03-08T02:23:00.309Z,938.52
2018-03-08T02:24:00.294Z,938.55
2018-03-08T02:25:00.277Z,938.53
2018-03-08T02:26:00.260Z,938.59
2018-03-08T02:27:00.244Z,938.56
2018-03-08T02:28:00.228Z,938.54
2018-03-08T02:29:00.212Z,938.54
2018-03-08T02:30:00.198Z,938.59
2018-03-08T02:31:00.184Z,938.58
2018-03-08T02:32:00.165Z,938.57
2018-03-08T02:33:00.148Z,938.55
2018-03-08T02:34:00.134Z,938.58
2018-03-08T02:35:00.119Z,938.57
2018-03-08T02:36:00.103Z,938.57
2018-03-08T02:37:00.092Z,938.59
2018-03-08T02:38:00.070Z,938.58
2018-03-08T02:39:00.056Z,938.6
2018-03-08T02:40:00.039Z,938.55
2018-03-08T02:41:00.021Z,938.56
2018-03-08T02:42:00.005Z,938.63
2018-03-08T02:42:59.992Z,938.66
2018-03-08T02:43:59.972Z,938.62
2018-03-08T02:44:59.956Z,938.65
2018-03-08T02:45:59.940Z,938.71
2018-03-08T02:46:59.924Z,938.72
2018-03-08T02:47:59.908Z,938.71
2018-03-08T02:48:59.890Z,938.67
2018-03-08T02:49:59.876Z,938.74
2018-03-08T02:50:59.858Z,938.7
2018-03-08T02:51:59.843Z,938.73
2018-03-08T02:52:59.829Z,938.7
2018-03-08T02:53:59.812Z,938.69
2018-03-08T02:54:59.795Z,938.71
2018-03-08T02:55:59.779Z,938.74
2018-03-08T02:56:59.763Z,938.73
2018-03-08T02:57:59.747Z,938.7
2018-03-08T02:58:59.731Z,938.76
2018-03-08T02:59:59.713Z,938.74
2018-03-08T03:00:59.698Z,938.71
2018-03-08T03:01:59.682Z,938.75
2018-03-08T03:02:59.667Z,938.77
2018-03-08T03:03:59.651Z,938.77
2018-03-08T03:04:59.636Z,938.74
2018-03-08T03:05:59.617Z,938.78
2018-03-08T03:06:59.602Z,938.79
2018-03-08T03:07:59.585Z,938.79
2018-03-08T03:08:59.570Z,938.81
2018-03-08T03:09:59.661Z,938.8
2018-03-08T03:10:59.538Z,938.8
2018-03-08T03:11:59.529Z,938.85
2018-03-08T03:12:59.506Z,938.85
2018-03-08T03:13:59.488Z,938.82
2018-03-08T03:14:59.473Z,938.8
2018-03-08T03:15:59.457Z,938.85
2018-03-08T03:16:59.440Z,938.83
2018-03-08T03:17:59.424Z,938.92
2018-03-08T03:18:59.410Z,938.87
2018-03-08T03:19:59.392Z,938.86
2018-03-08T03:20:59.376Z,938.9
2018-03-08T03:21:59.358Z,938.82
2018-03-08T03:22:59.343Z,938.93
2018-03-08T03:23:59.328Z,938.96
2018-03-08T03:24:59.312Z,938.94
2018-03-08T03:25:59.294Z,938.95
2018-03-08T03:26:59.279Z,939.02
2018-03-08T03:27:59.274Z,938.97
2018-03-08T03:28:59.246Z,938.97
2018-03-08T03:29:59.231Z,938.9
2018-03-08T03:30:59.216Z,938.93
2018-03-08T03:31:59.197Z,938.93
2018-03-08T03:32:59.182Z,938.93
2018-03-08T03:33:59.166Z,938.94
2018-03-08T03:34:59.150Z,939.04
2018-03-08T03:35:59.133Z,939.11
2018-03-08T03:36:59.118Z,939.08
2018-03-08T03:37:59.102Z,939.03
2018-03-08T03:38:59.085Z,939.08
2018-03-08T03:39:59.070Z,939.12
2018-03-08T03:40:59.053Z,939.14
2018-03-08T03:41:59.039Z,939.09
2018-03-08T03:42:59.022Z,939.14
2018-03-08T03:43:59.005Z,939.13
2018-03-08T03:44:58.988Z,939.12
2018-03-08T03:45:58.972Z,939.17
2018-03-08T03:46:58.958Z,939.15
2018-03-08T03:47:58.941Z,939.18
2018-03-08T03:48:58.925Z,939.14
2018-03-08T03:49:58.908Z,939.2
2018-03-08T03:50:58.893Z,939.17
2018-03-08T03:51:58.875Z,939.15
2018-03-08T03:52:58.860Z,939.15
2018-03-08T03:53:58.842Z,939.1
2018-03-08T03:54:58.827Z,939.18
2018-03-08T03:55:58.813Z,939.2
2018-03-08T03:56:58.796Z,939.19
2018-03-08T03:57:58.778Z,939.17
2018-03-08T03:58:58.762Z,939.23
2018-03-08T03:59:58.747Z,939.14
2018-03-08T04:00:58.731Z,939.24
2018-03-08T04:01:58.716Z,939.28
2018-03-08T04:02:58.699Z,939.35
2018-03-08T04:03:58.719Z,939.33
2018-03-08T04:04:58.666Z,939.36
2018-03-08T04:05:58.651Z,939.34
2018-03-08T04:06:58.635Z,939.35
2018-03-08T04:07:58.618Z,939.38
2018-03-08T04:08:58.603Z,939.42
2018-03-08T04:09:58.587Z,939.46
2018-03-08T04:10:58.580Z,939.44
2018-03-08T04:11:58.553Z,939.5
2018-03-08T04:12:58.539Z,939.48
2018-03-08T04:13:58.526Z,939.5
2018-03-08T04:14:58.506Z,939.56
2018-03-08T04:15:58.489Z,939.5
2018-03-08T04:16:58.474Z,939.59
2018-03-08T04:17:58.458Z,939.55
2018-03-08T04:18:58.441Z,939.54
2018-03-08T04:19:58.426Z,939.53
2018-03-08T04:20:58.411Z,939.53
2018-03-08T04:21:58.393Z,939.53
2018-03-08T04:22:58.376Z,939.49
2018-03-08T04:23:58.358Z,939.51
2018-03-08T04:24:58.344Z,939.55
2018-03-08T04:25:58.334Z,939.5
2018-03-08T04:26:58.311Z,939.54
2018-03-08T04:27:58.296Z,939.52
2018-03-08T04:28:58.280Z,939.51
2018-03-08T04:29:58.268Z,939.51
2018-03-08T04:30:58.245Z,939.57
2018-03-08T04:31:58.230Z,939.59
2018-03-08T04:32:58.216Z,939.59
2018-03-08T04:33:58.198Z,939.54
2018-03-08T04:34:58.182Z,939.59
2018-03-08T04:35:58.166Z,939.58
2018-03-08T04:36:58.149Z,939.61
2018-03-08T04:37:58.132Z,939.61
2018-03-08T04:38:58.116Z,939.63
2018-03-08T04:39:58.100Z,939.6
2018-03-08T04:40:58.084Z,939.64
2018-03-08T04:41:58.069Z,939.6
2018-03-08T04:42:58.052Z,939.57
2018-03-08T04:43:58.036Z,939.64
2018-03-08T04:44:58.020Z,939.72
2018-03-08T04:45:58.002Z,939.66
2018-03-08T04:46:57.986Z,939.71
2018-03-08T04:47:57.973Z,939.73
2018-03-08T04:48:58.015Z,939.67
2018-03-08T04:49:57.938Z,939.75
2018-03-08T04:50:57.921Z,939.69
2018-03-08T04:51:57.907Z,939.74
2018-03-08T04:52:57.888Z,939.76
2018-03-08T04:53:57.873Z,939.79
2018-03-08T04:54:57.856Z,939.78
2018-03-08T04:55:57.839Z,939.81
2018-03-08T04:56:57.824Z,939.76
2018-03-08T04:57:57.809Z,939.81
2018-03-08T04:58:57.792Z,939.82
2018-03-08T04:59:57.774Z,939.87
2018-03-08T05:00:57.759Z,939.81
2018-03-08T05:01:57.741Z,939.84
2018-03-08T05:02:57.725Z,939.92
2018-03-08T05:03:57.710Z,939.9
2018-03-08T05:04:57.693Z,939.87
2018-03-08T05:05:57.676Z,939.83
2018-03-08T05:06:57.660Z,939.82
2018-03-08T05:07:57.648Z,939.84
2018-03-08T05:08:57.630Z,939.85
2018-03-08T05:09:57.612Z,939.85
2018-03-08T05:10:57.595Z,939.85
2018-03-08T05:11:57.579Z,939.92
2018-03-08T05:12:57.562Z,939.91
2018-03-08T05:13:57.546Z,939.99
2018-03-08T05:14:57.529Z,939.92
2018-03-08T05:15:57.514Z,939.91
2018-03-08T05:16:57.496Z,939.9
2018-03-08T05:17:57.478Z,939.97
2018-03-08T05:18:57.464Z,939.95
2018-03-08T05:19:57.447Z,939.96
2018-03-08T05:20:57.431Z,940.01
2018-03-08T05:21:57.414Z,940.06
2018-03-08T05:22:57.399Z,939.99
2018-03-08T05:23:57.385Z,940.12
2018-03-08T05:24:57.367Z,940.06
2018-03-08T05:25:57.348Z,940.04
2018-03-08T05:26:57.335Z,940.08
2018-03-08T05:27:57.317Z,940.07
2018-03-08T05:28:57.298Z,940.11
2018-03-08T05:29:57.283Z,940.24
2018-03-08T05:30:57.266Z,940.22
2018-03-08T05:31:57.254Z,940.19
2018-03-08T05:32:57.232Z,940.22
2018-03-08T05:33:57.217Z,940.22
2018-03-08T05:34:57.202Z,940.18
2018-03-08T05:35:57.183Z,940.28
2018-03-08T05:36:57.166Z,940.3
2018-03-08T05:37:57.150Z,940.2
2018-03-08T05:38:57.136Z,940.32
2018-03-08T05:39:57.116Z,940.3
2018-03-08T05:40:57.101Z,940.35
2018-03-08T05:41:57.085Z,940.24
2018-03-08T05:42:57.069Z,940.23
2018-03-08T05:43:57.053Z,940.34
2018-03-08T05:44:57.037Z,940.35
2018-03-08T05:45:57.024Z,940.32
2018-03-08T05:46:57.002Z,940.35
2018-03-08T05:47:56.990Z,940.45
2018-03-08T05:48:56.970Z,940.42
2018-03-08T05:49:56.953Z,940.42
2018-03-08T05:50:56.937Z,940.41
2018-03-08T05:51:56.924Z,940.42
2018-03-08T05:52:56.903Z,940.45
2018-03-08T05:53:56.887Z,940.48
2018-03-08T05:54:56.877Z,940.48
2018-03-08T05:55:56.854Z,940.54
2018-03-08T05:56:56.837Z,940.48
2018-03-08T05:57:56.822Z,940.5
2018-03-08T05:58:56.804Z,940.53
2018-03-08T05:59:56.788Z,940.58
2018-03-08T06:00:56.773Z,940.49
2018-03-08T06:01:56.756Z,940.58
2018-03-08T06:02:56.738Z,940.59
2018-03-08T06:03:56.722Z,940.54
2018-03-08T06:04:56.705Z,940.64
2018-03-08T06:05:56.689Z,940.61
2018-03-08T06:06:56.671Z,940.63
2018-03-08T06:07:56.656Z,940.64
2018-03-08T06:08:56.639Z,940.68
2018-03-08T06:09:56.623Z,940.73
2018-03-08T06:10:56.606Z,940.73
2018-03-08T06:11:56.590Z,940.75
2018-03-08T06:12:56.574Z,940.81
2018-03-08T06:13:56.558Z,940.73
2018-03-08T06:14:56.539Z,940.81
2018-03-08T06:15:56.523Z,940.79
2018-03-08T06:16:56.508Z,940.82
2018-03-08T06:17:56.490Z,940.76
2018-03-08T06:18:56.476Z,940.77
2018-03-08T06:19:56.456Z,940.86
2018-03-08T06:20:56.442Z,940.88
2018-03-08T06:21:56.426Z,940.88
2018-03-08T06:22:56.412Z,940.91
2018-03-08T06:23:56.391Z,940.94
2018-03-08T06:24:56.377Z,940.96
2018-03-08T06:25:56.359Z,941.01
2018-03-08T06:26:56.343Z,940.96
2018-03-08T06:27:56.327Z,940.98
2018-03-08T06:28:56.311Z,940.99
2018-03-08T06:29:56.296Z,941.02
2018-03-08T06:30:56.280Z,941.04
2018-03-08T06:31:56.261Z,941.02
2018-03-08T06:32:56.246Z,941.04
2018-03-08T06:33:56.229Z,941.07
2018-03-08T06:34:56.213Z,941.13
2018-03-08T06:35:56.195Z,941.17
2018-03-08T06:36:56.179Z,941.14
2018-03-08T06:37:56.161Z,941.16
2018-03-08T06:38:56.148Z,941.18
2018-03-08T06:39:56.128Z,941.17
2018-03-08T06:40:56.113Z,941.17
2018-03-08T06:41:56.097Z,941.2
2018-03-08T06:42:56.081Z,941.27
2018-03-08T06:43:56.067Z,941.32
2018-03-08T06:44:56.048Z,941.27
2018-03-08T06:45:56.031Z,941.34
2018-03-08T06:46:56.015Z,941.32
2018-03-08T06:47:56.000Z,941.33
2018-03-08T06:48:55.983Z,941.35
2018-03-08T06:49:55.967Z,941.36
2018-03-08T06:50:55.952Z,941.36
2018-03-08T06:51:55.935Z,941.39
2018-03-08T06:52:55.918Z,941.38
2018-03-08T06:53:55.905Z,941.42
2018-03-08T06:54:55.885Z,941.41
2018-03-08T06:55:55.869Z,941.35
2018-03-08T06:56:55.852Z,941.47
2018-03-08T06:57:55.837Z,941.42
2018-03-08T06:58:55.820Z,941.51
2018-03-08T06:59:55.805Z,941.46
2018-03-08T07:00:55.787Z,941.47
2018-03-08T07:01:55.770Z,941.52
2018-03-08T07:02:55.755Z,941.52
2018-03-08T07:03:55.736Z,941.52
2018-03-08T07:04:55.722Z,941.54
2018-03-08T07:05:55.706Z,941.52
2018-03-08T07:06:55.689Z,941.58
2018-03-08T07:07:55.673Z,941.64
2018-03-08T07:08:55.655Z,941.62
2018-03-08T07:09:55.644Z,941.64
2018-03-08T07:10:55.623Z,941.63
2018-03-08T07:11:55.607Z,941.62
2018-03-08T07:12:55.592Z,941.73
2018-03-08T07:13:55.575Z,941.72
2018-03-08T07:14:55.556Z,941.7
2018-03-08T07:15:55.540Z,941.73
2018-03-08T07:16:55.525Z,941.75
2018-03-08T07:17:55.509Z,941.78
2018-03-08T07:18:55.492Z,941.75
2018-03-08T07:19:55.476Z,941.79
2018-03-08T07:20:55.459Z,941.82
2018-03-08T07:21:55.442Z,941.82
2018-03-08T07:22:55.425Z,941.82
2018-03-08T07:23:55.408Z,941.81
2018-03-08T07:24:55.393Z,941.8
2018-03-08T07:25:55.376Z,941.85
2018-03-08T07:26:55.361Z,941.98
2018-03-08T07:27:55.342Z,941.9
2018-03-08T07:28:55.325Z,941.91
2018-03-08T07:29:55.311Z,941.93
2018-03-08T07:30:55.295Z,941.94
2018-03-08T07:31:55.281Z,942.02
2018-03-08T07:32:55.261Z,941.97
2018-03-08T07:33:55.251Z,941.96
2018-03-08T07:34:55.230Z,942
2018-03-08T07:35:55.213Z,942.02
2018-03-08T07:36:55.197Z,941.95
2018-03-08T07:37:55.181Z,942.01
2018-03-08T07:38:55.165Z,942.03
2018-03-08T07:39:55.152Z,942.1
2018-03-08T07:40:55.134Z,942.06
2018-03-08T07:41:55.117Z,942.1
2018-03-08T07:42:55.102Z,942.05
2018-03-08T07:43:55.094Z,942
2018-03-08T07:44:55.069Z,942
2018-03-08T07:45:55.054Z,942.07
2018-03-08T07:46:55.038Z,942.12
2018-03-08T07:47:55.022Z,941.99
2018-03-08T07:48:55.007Z,942.07
2018-03-08T07:49:54.991Z,942.1
2018-03-08T07:50:54.975Z,942.09
2018-03-08T07:51:54.960Z,942.15
2018-03-08T07:52:54.945Z,942.11
2018-03-08T07:53:54.927Z,942.19
2018-03-08T07:54:54.914Z,942.13
2018-03-08T07:55:54.897Z,942.17
2018-03-08T07:56:54.880Z,942.18
2018-03-08T07:57:54.867Z,942.13
2018-03-08T07:58:54.851Z,942.18
2018-03-08T07:59:54.833Z,942.16
2018-03-08T08:00:54.819Z,942.24
2018-03-08T08:01:54.804Z,942.17
2018-03-08T08:02:54.787Z,942.2
2018-03-08T08:03:54.773Z,942.3
2018-03-08T08:04:54.756Z,942.2
2018-03-08T08:05:54.739Z,942.22
2018-03-08T08:06:54.725Z,942.2
2018-03-08T08:07:54.711Z,942.28
2018-03-08T08:08:54.694Z,942.29
2018-03-08T08:09:54.678Z,942.33
2018-03-08T08:10:54.664Z,942.33
2018-03-08T08:11:54.648Z,942.33
2018-03-08T08:12:54.632Z,942.3
2018-03-08T08:13:54.619Z,942.3
2018-03-08T08:14:54.609Z,942.26
2018-03-08T08:15:54.595Z,942.31
2018-03-08T08:16:54.571Z,942.27
2018-03-08T08:17:54.555Z,942.27
2018-03-08T08:18:54.542Z,942.25
2018-03-08T08:19:54.525Z,942.29
2018-03-08T08:20:54.520Z,942.3
2018-03-08T08:21:54.495Z,942.29
2018-03-08T08:22:54.480Z,942.29
2018-03-08T08:23:54.464Z,942.31
2018-03-08T08:24:54.449Z,942.35
2018-03-08T08:25:54.435Z,942.35
2018-03-08T08:26:54.421Z,942.31
2018-03-08T08:27:54.404Z,942.42
2018-03-08T08:28:54.388Z,942.44
2018-03-08T08:29:54.373Z,942.45
2018-03-08T08:30:54.359Z,942.51
2018-03-08T08:31:54.346Z,942.39
2018-03-08T08:32:54.329Z,942.44
2018-03-08T08:33:54.314Z,942.5
2018-03-08T08:34:54.299Z,942.49
2018-03-08T08:35:54.285Z,942.48
2018-03-08T08:36:54.270Z,942.37
2018-03-08T08:37:54.255Z,942.58
2018-03-08T08:38:54.240Z,942.6
2018-03-08T08:39:54.230Z,942.61
2018-03-08T08:40:54.210Z,942.5
2018-03-08T08:41:54.207Z,942.56
2018-03-08T08:42:54.181Z,942.55
2018-03-08T08:43:54.165Z,942.58
2018-03-08T08:44:54.151Z,942.7
2018-03-08T08:45:54.140Z,942.72
2018-03-08T08:46:54.121Z,942.7
2018-03-08T08:47:54.106Z,942.66
2018-03-08T08:48:54.091Z,942.73
2018-03-08T08:49:54.076Z,942.75
2018-03-08T08:50:54.063Z,942.68
2018-03-08T08:51:54.047Z,942.76
2018-03-08T08:52:54.033Z,942.76
2018-03-08T08:53:54.019Z,942.72
2018-03-08T08:54:54.004Z,942.8
2018-03-08T08:55:53.991Z,942.86
2018-03-08T08:56:53.974Z,942.82
2018-03-08T08:57:53.960Z,942.78
2018-03-08T08:58:53.951Z,942.84
2018-03-08T08:59:53.934Z,942.86
2018-03-08T09:00:53.915Z,942.89
2018-03-08T09:01:53.901Z,942.89
2018-03-08T09:02:53.888Z,942.91
2018-03-08T09:03:53.872Z,942.93
2018-03-08T09:04:53.857Z,942.97
2018-03-08T09:05:53.850Z,942.95
2018-03-08T09:06:53.833Z,942.95
2018-03-08T09:07:53.813Z,943
2018-03-08T09:08:53.799Z,943.05
2018-03-08T09:09:53.785Z,943
2018-03-08T09:10:53.770Z,943.13
2018-03-08T09:11:53.755Z,943.02
2018-03-08T09:12:53.740Z,942.99
2018-03-08T09:13:53.726Z,943.04
2018-03-08T09:14:53.710Z,943.09
2018-03-08T09:15:53.697Z,943.08
2018-03-08T09:16:53.681Z,943.15
2018-03-08T09:17:53.668Z,943.13
2018-03-08T09:18:53.655Z,943.11
2018-03-08T09:19:53.637Z,943.14
2018-03-08T09:20:53.625Z,943.09
2018-03-08T09:21:53.609Z,943.17
2018-03-08T09:22:53.592Z,943.13
2018-03-08T09:23:53.577Z,943.09
2018-03-08T09:24:53.563Z,943.09
2018-03-08T09:25:53.553Z,943.1
2018-03-08T09:26:53.532Z,943.18
2018-03-08T09:27:53.518Z,943.14
2018-03-08T09:28:53.503Z,943.17
2018-03-08T09:29:53.489Z,943.23
2018-03-08T09:30:53.472Z,943.12
2018-03-08T09:31:53.457Z,943.13
2018-03-08T09:32:53.445Z,943.15
2018-03-08T09:33:53.438Z,943.19
2018-03-08T09:34:53.414Z,943.2
2018-03-08T09:35:53.398Z,943.18
2018-03-08T09:36:53.382Z,943.21
2018-03-08T09:37:53.372Z,943.19
2018-03-08T09:38:53.353Z,943.19
2018-03-08T09:39:53.336Z,943.17
2018-03-08T09:40:53.323Z,943.18
2018-03-08T09:41:53.309Z,943.24
2018-03-08T09:42:53.294Z,943.14
2018-03-08T09:43:53.280Z,943.18
2018-03-08T09:44:53.262Z,943.16
2018-03-08T09:45:53.247Z,943.12
2018-03-08T09:46:53.235Z,943.14
2018-03-08T09:47:53.218Z,943.21
2018-03-08T09:48:53.202Z,943.11
2018-03-08T09:49:53.187Z,943.19
2018-03-08T09:50:53.174Z,943.19
2018-03-08T09:51:53.162Z,943.17
2018-03-08T09:52:53.144Z,943.11
2018-03-08T09:53:53.129Z,943.01
2018-03-08T09:54:53.115Z,943.06
2018-03-08T09:55:53.098Z,943.06
2018-03-08T09:56:53.084Z,943.07
2018-03-08T09:57:53.070Z,943.07
2018-03-08T09:58:53.084Z,942.98
2018-03-08T09:59:53.041Z,943.09
2018-03-08T10:00:53.027Z,943.06
2018-03-08T10:01:53.011Z,943.05
2018-03-08T10:02:52.995Z,943.07
2018-03-08T10:03:52.983Z,943.06
2018-03-08T10:04:52.966Z,943.01
2018-03-08T10:05:52.954Z,942.99
2018-03-08T10:06:52.940Z,942.99
2018-03-08T10:07:52.925Z,942.97
2018-03-08T10:08:52.910Z,942.87
2018-03-08T10:09:52.894Z,942.9
2018-03-08T10:10:52.881Z,942.91
2018-03-08T10:11:52.867Z,942.85
2018-03-08T10:12:52.914Z,942.85
2018-03-08T10:13:52.837Z,942.87
2018-03-08T10:14:52.824Z,942.83
2018-03-08T10:15:52.809Z,942.83
2018-03-08T10:16:52.794Z,942.79
2018-03-08T10:17:52.779Z,942.78
2018-03-08T10:18:52.764Z,942.79
2018-03-08T10:19:52.752Z,942.72
2018-03-08T10:20:52.738Z,942.67
2018-03-08T10:21:52.721Z,942.7
2018-03-08T10:22:52.708Z,942.73
2018-03-08T10:23:52.693Z,942.64
2018-03-08T10:24:52.678Z,942.71
2018-03-08T10:25:52.663Z,942.66
2018-03-08T10:26:52.650Z,942.73
2018-03-08T10:27:52.635Z,942.79
2018-03-08T10:28:52.623Z,942.69
2018-03-08T10:29:52.607Z,942.71
2018-03-08T10:30:52.592Z,942.74
2018-03-08T10:31:52.577Z,942.73
2018-03-08T10:32:52.563Z,942.59
2018-03-08T10:33:52.549Z,942.61
2018-03-08T10:34:52.535Z,942.62
2018-03-08T10:35:52.520Z,942.64
2018-03-08T10:36:52.506Z,942.73
2018-03-08T10:37:52.494Z,942.71
2018-03-08T10:38:52.478Z,942.73
2018-03-08T10:39:52.462Z,942.72
2018-03-08T10:40:52.452Z,942.66
2018-03-08T10:41:52.436Z,942.66
2018-03-08T10:42:52.422Z,942.71
2018-03-08T10:43:52.411Z,942.72
2018-03-08T10:44:52.393Z,942.8
2018-03-08T10:45:52.381Z,942.84
2018-03-08T10:46:52.365Z,942.87
2018-03-08T10:47:52.350Z,942.92
2018-03-08T10:49:52.324Z,942.83
2018-03-08T10:50:52.312Z,942.86
2018-03-08T10:51:52.297Z,942.84
2018-03-08T10:52:52.284Z,942.83
2018-03-08T10:53:52.270Z,942.86
2018-03-08T10:54:52.258Z,942.94
2018-03-08T10:55:52.244Z,942.88
2018-03-08T10:56:52.230Z,942.99
2018-03-08T10:57:52.217Z,943.02
2018-03-08T10:58:52.202Z,943.04
2018-03-08T10:59:52.191Z,942.98
2018-03-08T11:00:52.176Z,942.91
2018-03-08T11:01:52.164Z,942.87
2018-03-08T11:02:52.151Z,942.88
2018-03-08T11:03:52.138Z,942.9
2018-03-08T11:04:52.124Z,942.95
2018-03-08T11:05:52.111Z,942.92
2018-03-08T11:06:52.098Z,942.93
2018-03-08T11:07:52.086Z,942.94
2018-03-08T11:08:52.073Z,942.9
2018-03-08T11:09:52.060Z,942.96
2018-03-08T11:10:52.048Z,942.91
2018-03-08T11:11:52.035Z,942.91
2018-03-08T11:12:52.020Z,942.84
2018-03-08T11:13:52.008Z,942.93
2018-03-08T11:14:51.996Z,942.9
2018-03-08T11:15:51.982Z,942.83
2018-03-08T11:16:51.969Z,942.95
2018-03-08T11:17:51.957Z,942.92
2018-03-08T11:18:51.944Z,942.92
2018-03-08T11:19:51.932Z,942.92
2018-03-08T11:20:51.919Z,942.85
2018-03-08T11:21:51.907Z,942.83
2018-03-08T11:22:51.894Z,942.87
2018-03-08T11:23:51.881Z,942.84
2018-03-08T11:24:51.873Z,942.79
2018-03-08T11:25:51.857Z,942.75
2018-03-08T11:26:51.843Z,942.66
2018-03-08T11:27:51.830Z,942.7
2018-03-08T11:28:51.820Z,942.72
2018-03-08T11:29:51.812Z,942.77
2018-03-08T11:30:51.794Z,942.8
2018-03-08T11:31:51.782Z,942.74
2018-03-08T11:32:51.772Z,942.77
2018-03-08T11:33:51.756Z,942.78
2018-03-08T11:34:51.745Z,942.88
2018-03-08T11:35:51.732Z,942.86
2018-03-08T11:36:51.721Z,942.85
2018-03-08T11:37:51.707Z,942.79
2018-03-08T11:38:51.694Z,942.86
2018-03-08T11:39:51.683Z,942.8
2018-03-08T11:40:51.671Z,942.76
2018-03-08T11:41:51.658Z,942.82
2018-03-08T11:42:51.646Z,942.76
2018-03-08T11:43:51.637Z,942.75
2018-03-08T11:44:51.619Z,942.79
2018-03-08T11:45:51.608Z,942.8
2018-03-08T11:46:51.596Z,942.86
2018-03-08T11:47:51.584Z,942.75
2018-03-08T11:48:51.571Z,942.65
2018-03-08T11:49:51.560Z,942.66
2018-03-08T11:50:51.546Z,942.69
2018-03-08T11:51:51.536Z,942.65
2018-03-08T11:52:51.522Z,942.69
2018-03-08T11:53:51.514Z,942.7
2018-03-08T11:54:51.571Z,942.73
2018-03-08T11:55:51.483Z,942.65
2018-03-08T11:56:51.472Z,942.64
2018-03-08T11:57:51.460Z,942.71
2018-03-08T11:58:51.447Z,942.67
2018-03-08T11:59:51.432Z,942.67
2018-03-08T12:00:51.422Z,942.66
2018-03-08T12:01:51.409Z,942.65
2018-03-08T12:02:51.395Z,942.67
2018-03-08T12:03:51.382Z,942.68
2018-03-08T12:04:51.371Z,942.66
2018-03-08T12:05:51.366Z,942.67
2018-03-08T12:06:51.345Z,942.61
2018-03-08T12:07:51.332Z,942.68
2018-03-08T12:08:51.319Z,942.64
2018-03-08T12:09:51.306Z,942.61
2018-03-08T12:10:51.293Z,942.61
2018-03-08T12:11:51.282Z,942.58
2018-03-08T12:12:51.268Z,942.62
2018-03-08T12:13:51.254Z,942.57
2018-03-08T12:14:51.243Z,942.55
2018-03-08T12:15:51.232Z,942.57
2018-03-08T12:16:51.289Z,942.58
2018-03-08T12:17:51.235Z,942.59
2018-03-08T12:18:51.193Z,942.61
2018-03-08T12:19:51.182Z,942.59
2018-03-08T12:20:51.174Z,942.54
2018-03-08T12:21:51.158Z,942.52
2018-03-08T12:22:51.144Z,942.48
2018-03-08T12:23:51.132Z,942.56
2018-03-08T12:24:51.118Z,942.59
2018-03-08T12:25:51.108Z,942.57
2018-03-08T12:26:51.095Z,942.55
2018-03-08T12:27:51.082Z,942.6
2018-03-08T12:28:51.070Z,942.49
2018-03-08T12:29:51.062Z,942.4
2018-03-08T12:30:51.046Z,942.5
2018-03-08T12:31:51.034Z,942.51